Terminal Aerodrome Forecast
Issued by NWS Pueblo, CO

Home | Current Version | Previous Version | Text Only | Print | Product List | Glossary On
Versions: 1 2 3 4 5 6 7 8 9 10 11 12 13 14 15 16 17 18 19 20 21 22 23 24 25 26
237
FTUS45 KPUB 192327
TAFALS
TAF
KALS 192327Z 2000/2024 VRB05KT P6SM BKN250
     FM200600 18006KT P6SM SCT100 BKN200
     FM200900 18006KT P6SM BKN080
     FM201500 21009KT P6SM SCT080 BKN200
     FM201800 22020G30KT P6SM SCT200=

USA.gov is the U.S. government's official web portal to all federal, state and local government web resources and services.